Time;durP1;ratioP1;P1;durP2;ratioP2;P2;SDS_P1;SDS_P2;PMS_P1;PMS_P2;Temp;Humidity;BMP_temperature;BMP_pressure;BME280_temperature;BME280_humidity;BME280_pressure;Samples;Min_cycle;Max_cycle;Signal;HPM_P1;HPM_P2
2022/09/23 00:04:28;;;;;;;5.47;3.63;;;;;9.00;101241.00;;;;13085864;22;20178;-74
2022/09/23 00:09:30;;;;;;;4.63;4.00;;;;;9.00;101243.00;;;;13085514;22;20702;-74
2022/09/23 00:14:31;;;;;;;5.77;3.83;;;;;8.90;101224.00;;;;13086480;22;20171;-74
2022/09/23 00:19:33;;;;;;;10.60;4.13;;;;;8.90;101224.00;;;;13039614;22;20258;-74
2022/09/23 00:24:34;;;;;;;5.20;4.37;;;;;8.80;101233.00;;;;13016766;22;20167;-74
2022/09/23 00:29:35;;;;;;;6.47;4.10;;;;;8.80;101225.00;;;;13062212;22;20191;-74
2022/09/23 00:34:37;;;;;;;5.93;4.97;;;;;8.70;101223.00;;;;13060974;22;20163;-74
2022/09/23 00:39:38;;;;;;;6.53;4.83;;;;;8.70;101211.00;;;;13015406;22;20630;-74
2022/09/23 00:44:43;;;;;;;5.87;4.67;;;;;8.70;101207.00;;;;12991004;22;20182;-74
2022/09/23 00:50:00;;;;;;;5.07;4.33;;;;;8.60;101211.00;;;;13040477;22;20200;-74
2022/09/23 00:55:11;;;;;;;6.60;4.73;;;;;8.60;101220.00;;;;13042347;22;20178;-74
2022/09/23 01:00:13;;;;;;;10.37;5.13;;;;;8.60;101224.00;;;;13035173;22;20159;-74
2022/09/23 01:05:16;;;;;;;6.80;4.87;;;;;8.70;101219.00;;;;13036819;22;20159;-74
2022/09/23 01:10:17;;;;;;;6.80;5.87;;;;;8.70;101210.00;;;;13036579;22;20213;-74
2022/09/23 01:15:31;;;;;;;6.60;5.20;;;;;8.80;101207.00;;;;13040274;22;20174;-74
2022/09/23 01:21:00;;;;;;;5.93;5.13;;;;;8.80;101218.00;;;;13040885;22;20599;-74
2022/09/23 01:26:39;;;;;;;11.83;5.87;;;;;8.80;101220.00;;;;13035930;22;20167;-74
2022/09/23 01:32:09;;;;;;;9.67;5.70;;;;;8.90;101219.00;;;;13039528;22;20195;-74
2022/09/23 01:37:17;;;;;;;6.67;5.47;;;;;8.90;101204.00;;;;13060582;22;20228;-74
2022/09/23 01:42:30;;;;;;;6.67;4.97;;;;;9.00;101202.00;;;;13038979;22;20175;-74
2022/09/23 01:47:40;;;;;;;7.80;5.90;;;;;9.00;101201.00;;;;13041356;22;20694;-74
2022/09/23 01:52:46;;;;;;;6.60;4.87;;;;;9.00;101200.00;;;;13039572;22;20538;-74
2022/09/23 01:58:02;;;;;;;7.03;5.30;;;;;8.90;101197.00;;;;13036165;22;20164;-74
2022/09/23 02:03:25;;;;;;;7.17;5.13;;;;;8.80;101187.00;;;;13014810;22;20175;-74
2022/09/23 02:08:59;;;;;;;7.17;4.70;;;;;8.70;101199.00;;;;13087754;22;20213;-74
2022/09/23 02:14:20;;;;;;;7.57;4.80;;;;;8.60;101189.00;;;;13012664;22;20175;-74
2022/09/23 02:19:30;;;;;;;6.63;4.67;;;;;8.60;101182.00;;;;13039486;22;20187;-74
2022/09/23 02:24:35;;;;;;;7.40;4.93;;;;;8.50;101179.00;;;;13065584;22;20258;-74
2022/09/23 02:29:48;;;;;;;5.57;4.33;;;;;8.50;101173.00;;;;13086969;22;20248;-74
2022/09/23 02:35:14;;;;;;;8.40;4.90;;;;;8.40;101170.00;;;;13040646;22;20246;-74
2022/09/23 02:40:56;;;;;;;6.70;4.70;;;;;8.40;101160.00;;;;13089794;22;20167;-74
2022/09/23 02:45:57;;;;;;;9.20;5.17;;;;;8.50;101140.00;;;;13041684;22;20242;-74
2022/09/23 02:51:01;;;;;;;8.40;5.03;;;;;8.50;101142.00;;;;13041281;22;20194;-74
2022/09/23 02:56:14;;;;;;;10.37;4.93;;;;;8.50;101157.00;;;;13062337;22;20166;-74
2022/09/23 03:01:25;;;;;;;7.43;4.60;;;;;8.50;101155.00;;;;12988417;22;20653;-74
2022/09/23 03:06:47;;;;;;;8.60;4.70;;;;;8.40;101154.00;;;;13089158;22;20163;-74
2022/09/23 03:11:56;;;;;;;5.53;4.23;;;;;8.40;101149.00;;;;13014646;22;20580;-74
2022/09/23 03:17:26;;;;;;;7.63;4.90;;;;;8.40;101146.00;;;;13036854;22;20194;-74
2022/09/23 03:22:33;;;;;;;6.53;4.27;;;;;8.40;101148.00;;;;13085216;22;20167;-75
2022/09/23 03:27:36;;;;;;;8.10;4.30;;;;;8.40;101148.00;;;;13061812;22;20240;-74
2022/09/23 03:32:40;;;;;;;7.13;4.70;;;;;8.50;101147.00;;;;13061011;22;20163;-74
2022/09/23 03:37:54;;;;;;;6.23;4.43;;;;;8.50;101156.00;;;;13041662;22;20171;-74
2022/09/23 03:42:56;;;;;;;6.67;4.77;;;;;8.60;101153.00;;;;13040518;22;20631;-74
2022/09/23 03:47:58;;;;;;;7.10;4.70;;;;;8.60;101137.00;;;;13034812;22;20203;-74
2022/09/23 03:52:59;;;;;;;5.90;5.10;;;;;8.70;101124.00;;;;13041608;22;20693;-74
2022/09/23 03:58:03;;;;;;;6.00;4.70;;;;;8.80;101108.00;;;;13064026;22;20167;-74
2022/09/23 04:03:04;;;;;;;12.67;5.00;;;;;8.80;101108.00;;;;13062017;22;20280;-74
2022/09/23 04:08:12;;;;;;;8.27;5.57;;;;;8.80;101120.00;;;;12992069;22;20567;-74
2022/09/23 04:13:13;;;;;;;7.57;5.00;;;;;8.80;101109.00;;;;13015095;22;20229;-74
2022/09/23 04:18:14;;;;;;;9.27;4.70;;;;;8.80;101111.00;;;;13018100;22;20202;-74
2022/09/23 04:23:15;;;;;;;6.83;5.00;;;;;8.80;101105.00;;;;12991074;22;20178;-74
2022/09/23 04:28:17;;;;;;;6.90;5.00;;;;;8.90;101103.00;;;;13043486;22;20218;-74
2022/09/23 04:33:18;;;;;;;9.17;5.33;;;;;8.90;101104.00;;;;13041548;22;20417;-74
2022/09/23 04:38:19;;;;;;;8.43;5.57;;;;;8.90;101103.00;;;;13013812;22;20185;-74
2022/09/23 04:43:22;;;;;;;11.77;5.97;;;;;8.90;101105.00;;;;13061430;22;20193;-74
2022/09/23 04:48:23;;;;;;;10.30;5.57;;;;;8.90;101105.00;;;;13009755;22;20199;-75
2022/09/23 04:53:24;;;;;;;11.03;5.77;;;;;9.00;101100.00;;;;12988980;22;20549;-74
2022/09/23 04:58:26;;;;;;;10.80;5.23;;;;;9.10;101106.00;;;;12986912;22;20183;-74
2022/09/23 05:03:29;;;;;;;11.47;5.30;;;;;9.10;101106.00;;;;13012473;22;20591;-74
2022/09/23 05:08:30;;;;;;;7.97;4.70;;;;;9.10;101102.00;;;;13012669;22;20203;-74
2022/09/23 05:13:35;;;;;;;12.30;5.43;;;;;9.10;101105.00;;;;13061321;22;20634;-74
2022/09/23 05:18:40;;;;;;;8.90;5.10;;;;;9.20;101118.00;;;;13014171;22;20183;-74
2022/09/23 05:23:41;;;;;;;14.60;5.60;;;;;9.20;101121.00;;;;13015511;22;20172;-74
2022/09/23 05:28:43;;;;;;;15.27;6.10;;;;;9.20;101117.00;;;;13040985;22;20392;-74
2022/09/23 05:33:47;;;;;;;10.47;5.53;;;;;9.20;101115.00;;;;13115681;22;20238;-74
2022/09/23 05:38:50;;;;;;;10.10;5.47;;;;;9.20;101116.00;;;;12988245;22;20180;-74
2022/09/23 05:43:52;;;;;;;10.97;4.93;;;;;9.30;101119.00;;;;13060788;22;20217;-74
2022/09/23 05:48:57;;;;;;;12.83;5.27;;;;;9.30;101119.00;;;;13039926;22;20666;-74
2022/09/23 05:54:04;;;;;;;16.30;6.30;;;;;9.40;101115.00;;;;13061288;22;20372;-74
2022/09/23 05:59:05;;;;;;;11.80;5.63;;;;;9.50;101117.00;;;;13062386;22;20549;-74
2022/09/23 06:04:11;;;;;;;18.43;5.70;;;;;9.80;101120.00;;;;13055395;22;20167;-72
2022/09/23 06:09:13;;;;;;;16.40;5.67;;;;;10.00;101116.00;;;;13037463;22;20207;-72
2022/09/23 06:14:15;;;;;;;14.37;5.53;;;;;10.30;101112.00;;;;12988642;22;20313;-72
2022/09/23 06:19:16;;;;;;;13.53;6.13;;;;;10.60;101117.00;;;;13089146;22;20167;-72
2022/09/23 06:24:17;;;;;;;15.33;6.73;;;;;10.90;101119.00;;;;12989852;22;20225;-72
2022/09/23 06:29:23;;;;;;;12.33;6.27;;;;;11.30;101105.00;;;;13012776;22;20313;-72
2022/09/23 06:34:24;;;;;;;15.97;6.20;;;;;11.50;101108.00;;;;13033446;22;20668;-72
2022/09/23 06:39:26;;;;;;;16.47;5.83;;;;;11.80;101109.00;;;;13080472;22;20178;-72
2022/09/23 06:44:27;;;;;;;11.00;6.07;;;;;12.00;101111.00;;;;13084831;22;20182;-72
2022/09/23 06:49:28;;;;;;;15.43;6.00;;;;;12.30;101114.00;;;;13013946;22;20243;-72
2022/09/23 06:54:30;;;;;;;25.93;7.83;;;;;12.60;101109.00;;;;13013241;22;20168;-72
2022/09/23 06:59:32;;;;;;;11.47;5.90;;;;;12.80;101109.00;;;;13064334;22;20228;-72
2022/09/23 07:04:33;;;;;;;13.77;6.10;;;;;13.00;101103.00;;;;13012885;22;20172;-72
2022/09/23 07:09:35;;;;;;;18.60;6.67;;;;;13.20;101093.00;;;;13086984;22;20194;-72
2022/09/23 07:14:36;;;;;;;15.83;6.33;;;;;13.40;101107.00;;;;13059255;22;20160;-72
2022/09/23 07:19:37;;;;;;;17.73;7.13;;;;;13.60;101107.00;;;;13086394;22;20168;-72
2022/09/23 07:24:38;;;;;;;19.73;6.77;;;;;13.80;101101.00;;;;13009823;22;20175;-72
2022/09/23 07:29:39;;;;;;;16.53;7.00;;;;;13.90;101093.00;;;;13010916;22;20247;-72
2022/09/23 07:34:50;;;;;;;13.70;6.27;;;;;14.00;101103.00;;;;13040054;22;20167;-72
2022/09/23 07:39:51;;;;;;;18.40;6.60;;;;;14.10;101095.00;;;;13063466;22;20164;-72
2022/09/23 07:44:54;;;;;;;16.67;6.53;;;;;14.30;101107.00;;;;13059989;22;20273;-72
2022/09/23 07:49:55;;;;;;;13.73;6.30;;;;;14.50;101100.00;;;;13086819;22;20191;-72
2022/09/23 07:54:57;;;;;;;13.87;6.17;;;;;14.70;101106.00;;;;13057733;22;20164;-72
2022/09/23 07:59:59;;;;;;;15.97;6.57;;;;;14.90;101101.00;;;;13037364;22;20209;-73
2022/09/23 08:05:01;;;;;;;11.53;5.83;;;;;15.10;101108.00;;;;13036767;22;20249;-73
2022/09/23 08:10:02;;;;;;;11.10;5.63;;;;;15.40;101104.00;;;;13011087;22;20268;-73
2022/09/23 08:15:05;;;;;;;10.27;5.00;;;;;15.50;101106.00;;;;13037858;22;20172;-72
2022/09/23 08:20:06;;;;;;;8.33;4.70;;;;;15.80;101112.00;;;;13110181;22;20164;-73
2022/09/23 08:25:08;;;;;;;12.52;5.05;;;;;16.30;101109.00;;;;13037260;22;20168;-73
2022/09/23 08:30:11;;;;;;;17.35;6.00;;;;;16.80;101103.00;;;;13037385;22;20583;-72
2022/09/23 08:35:13;;;;;;;11.95;5.72;;;;;17.20;101100.00;;;;13058363;22;20260;-72
2022/09/23 08:40:15;;;;;;;8.73;5.20;;;;;17.50;101107.00;;;;13060052;22;20647;-72
2022/09/23 08:45:22;;;;;;;12.10;5.57;;;;;17.70;101109.00;;;;13039239;22;20180;-72
2022/09/23 08:50:28;;;;;;;14.57;5.35;;;;;18.10;101111.00;;;;13014455;22;20192;-72
2022/09/23 08:55:46;;;;;;;12.57;5.47;;;;;18.60;101103.00;;;;13038852;22;20614;-72
2022/09/23 09:01:07;;;;;;;12.85;5.85;;;;;19.00;101108.00;;;;13039938;22;20181;-72
2022/09/23 09:06:16;;;;;;;13.57;5.57;;;;;19.40;101104.00;;;;13060993;22;20914;-72
2022/09/23 09:11:20;;;;;;;14.98;5.65;;;;;19.70;101099.00;;;;13036210;22;20630;-72
2022/09/23 09:16:45;;;;;;;13.80;5.32;;;;;20.00;101106.00;;;;13086658;22;20628;-73
2022/09/23 09:22:08;;;;;;;11.32;5.85;;;;;20.60;101099.00;;;;13017273;22;20180;-72
2022/09/23 09:27:12;;;;;;;10.98;5.38;;;;;20.80;101090.00;;;;13038486;22;20171;-73
2022/09/23 09:32:50;;;;;;;9.27;4.40;;;;;20.70;101077.00;;;;13012308;22;20195;-72
2022/09/23 09:37:51;;;;;;;17.35;4.68;;;;;20.90;101083.00;;;;13039148;22;20199;-72
2022/09/23 09:42:54;;;;;;;16.98;5.53;;;;;21.20;101079.00;;;;13112467;22;20167;-73
2022/09/23 09:48:02;;;;;;;12.88;4.05;;;;;21.40;101080.00;;;;13061750;22;20270;-73
2022/09/23 09:53:20;;;;;;;13.20;4.22;;;;;21.80;101084.00;;;;13085745;22;20198;-73
2022/09/23 09:58:22;;;;;;;10.45;4.03;;;;;22.20;101075.00;;;;13062408;22;20175;-73
2022/09/23 10:03:30;;;;;;;8.73;4.65;;;;;22.50;101074.00;;;;13061499;22;20261;-73
2022/09/23 10:08:35;;;;;;;11.18;5.32;;;;;22.70;101081.00;;;;13038936;22;20192;-73
2022/09/23 10:13:37;;;;;;;11.90;5.10;;;;;23.00;101079.00;;;;13055266;22;20170;-73
2022/09/23 10:18:48;;;;;;;9.77;5.00;;;;;23.30;101073.00;;;;13064959;22;20945;-73
2022/09/23 10:23:56;;;;;;;9.85;4.55;;;;;23.70;101067.00;;;;13038381;22;20171;-73
2022/09/23 10:29:01;;;;;;;10.43;4.30;;;;;24.10;101066.00;;;;13059535;22;20195;-73
2022/09/23 10:34:19;;;;;;;10.82;4.25;;;;;24.30;101053.00;;;;13112168;22;20175;-73
2022/09/23 10:50:47;;;;;;;8.27;3.65;;;;;23.60;101058.00;;;;12981968;22;20278;-73
2022/09/23 10:56:08;;;;;;;5.60;2.55;;;;;23.90;101058.00;;;;13080465;22;20194;-73
2022/09/23 11:01:30;;;;;;;6.45;3.20;;;;;24.20;101053.00;;;;13036622;22;20697;-73
2022/09/23 11:07:08;;;;;;;4.63;3.05;;;;;23.90;101061.00;;;;13036755;22;20571;-73
2022/09/23 11:12:24;;;;;;;5.47;2.67;;;;;23.60;101065.00;;;;13038909;22;20634;-73
2022/09/23 11:18:03;;;;;;;8.93;3.53;;;;;23.30;101062.00;;;;13035820;22;20216;-73
2022/09/23 11:23:22;;;;;;;8.77;4.15;;;;;22.90;101049.00;;;;13038120;22;20175;-73
2022/09/23 11:28:51;;;;;;;6.07;3.95;;;;;22.90;101054.00;;;;13059424;22;20187;-73
2022/09/23 11:34:11;;;;;;;5.13;3.13;;;;;23.00;101052.00;;;;13033450;22;20486;-73
2022/09/23 11:39:18;;;;;;;6.72;3.58;;;;;23.10;101037.00;;;;13083390;22;20171;-73
2022/09/23 11:44:28;;;;;;;6.45;3.97;;;;;23.10;101037.00;;;;13037949;22;20194;-73
2022/09/23 11:49:59;;;;;;;5.68;3.58;;;;;23.20;101026.00;;;;13063210;22;20199;-73
2022/09/23 11:55:10;;;;;;;7.65;3.47;;;;;23.40;101034.00;;;;13037764;22;20178;-73
2022/09/23 12:00:25;;;;;;;6.85;4.10;;;;;23.10;101029.00;;;;13034135;22;20363;-73
2022/09/23 12:05:31;;;;;;;7.90;3.80;;;;;22.80;101029.00;;;;13112583;22;20167;-73
2022/09/23 12:11:00;;;;;;;7.00;3.85;;;;;23.00;101029.00;;;;13084009;22;20191;-72
2022/09/23 12:16:39;;;;;;;7.80;3.75;;;;;23.50;101028.00;;;;13061116;22;20163;-72
2022/09/23 12:22:25;;;;;;;8.52;3.70;;;;;23.90;101024.00;;;;13059887;22;20289;-72
2022/09/23 12:27:35;;;;;;;4.68;3.22;;;;;23.70;101019.00;;;;13111410;22;20300;-72
2022/09/23 12:32:37;;;;;;;5.22;3.85;;;;;23.20;101018.00;;;;13087010;22;20198;-72
2022/09/23 12:37:38;;;;;;;5.63;3.35;;;;;22.70;101002.00;;;;13087279;22;20239;-72
2022/09/23 12:42:43;;;;;;;6.10;3.28;;;;;22.10;101008.00;;;;13038267;22;20288;-72
2022/09/23 12:47:44;;;;;;;9.70;4.15;;;;;21.70;100997.00;;;;13065404;22;20191;-72
2022/09/23 12:52:46;;;;;;;6.80;3.70;;;;;21.40;100999.00;;;;13082579;22;20956;-72
2022/09/23 12:57:47;;;;;;;7.22;3.13;;;;;21.20;100998.00;;;;13014154;22;20178;-72
2022/09/23 13:08:16;;;;;;;5.38;3.55;;;;;21.30;100997.00;;;;13085351;22;20184;-72
2022/09/23 13:13:31;;;;;;;6.10;3.58;;;;;21.90;100987.00;;;;13063550;22;20163;-72
2022/09/23 13:18:53;;;;;;;6.65;4.00;;;;;22.30;100983.00;;;;13039096;22;20178;-72
2022/09/23 13:24:51;;;;;;;6.45;4.10;;;;;22.60;100973.00;;;;13060171;22;20372;-72
2022/09/23 13:29:57;;;;;;;5.70;3.08;;;;;22.50;100971.00;;;;12954384;22;20230;-72
2022/09/23 13:35:15;;;;;;;5.38;3.13;;;;;22.30;100963.00;;;;13064089;22;20645;-72
2022/09/23 13:40:27;;;;;;;5.45;2.80;;;;;22.30;100967.00;;;;13114407;22;20171;-73
2022/09/23 13:45:32;;;;;;;5.55;2.90;;;;;22.40;100968.00;;;;13085545;22;20531;-73
2022/09/23 13:50:37;;;;;;;4.10;3.08;;;;;22.30;100969.00;;;;13113458;22;20278;-73
2022/09/23 13:55:40;;;;;;;8.27;3.80;;;;;22.10;100964.00;;;;13113385;22;20175;-72
2022/09/23 14:00:41;;;;;;;4.57;2.70;;;;;21.90;100961.00;;;;13060368;22;20293;-72
2022/09/23 14:05:43;;;;;;;5.63;3.67;;;;;21.70;100966.00;;;;13086612;22;20205;-73
2022/09/23 14:10:45;;;;;;;4.15;3.67;;;;;21.80;100957.00;;;;13038361;22;20195;-73
2022/09/23 14:15:47;;;;;;;10.35;3.90;;;;;21.90;100951.00;;;;13107925;22;20267;-73
2022/09/23 14:20:49;;;;;;;7.63;4.20;;;;;21.90;100947.00;;;;13083029;22;20635;-73
2022/09/23 14:25:51;;;;;;;7.60;4.57;;;;;21.60;100946.00;;;;13113320;22;20789;-73
2022/09/23 14:30:56;;;;;;;7.47;4.60;;;;;21.30;100940.00;;;;13037485;22;20196;-73
2022/09/23 14:38:49;;;;;;;8.43;4.57;;;;;20.90;100940.00;;;;13037147;22;20174;-72
2022/09/23 14:41:37;;;;;;;7.30;4.63;;;;;20.50;100933.00;;;;13085605;22;20167;-72
2022/09/23 14:46:39;;;;;;;8.18;5.28;;;;;20.30;100930.00;;;;13063569;22;20172;-73
2022/09/23 14:51:48;;;;;;;7.60;4.95;;;;;20.10;100927.00;;;;13085143;22;20218;-72
2022/09/23 14:56:50;;;;;;;6.93;4.07;;;;;20.00;100927.00;;;;13085216;22;20254;-72
2022/09/23 15:01:51;;;;;;;6.95;4.40;;;;;19.90;100919.00;;;;13112263;22;20223;-72
2022/09/23 15:07:05;;;;;;;8.68;5.10;;;;;19.70;100923.00;;;;13060262;22;20160;-72
2022/09/23 15:12:19;;;;;;;12.68;4.25;;;;;19.50;100927.00;;;;13084870;22;20188;-72
2022/09/23 15:17:36;;;;;;;6.65;3.90;;;;;19.40;100920.00;;;;13063467;22;20171;-72
2022/09/23 15:22:47;;;;;;;6.00;4.10;;;;;19.30;100920.00;;;;13058867;22;20170;-73
2022/09/23 15:28:07;;;;;;;6.57;4.15;;;;;19.20;100911.00;;;;13083990;22;20175;-72
2022/09/23 15:33:13;;;;;;;9.27;3.70;;;;;19.20;100905.00;;;;13036358;22;20229;-72
2022/09/23 15:38:16;;;;;;;6.28;4.03;;;;;19.10;100905.00;;;;13010868;22;20251;-72
2022/09/23 15:43:23;;;;;;;11.60;4.38;;;;;19.00;100901.00;;;;13058089;22;20160;-73
2022/09/23 15:48:31;;;;;;;30.13;5.97;;;;;18.80;100896.00;;;;13086545;22;20183;-73
2022/09/23 15:53:33;;;;;;;6.65;4.13;;;;;18.70;100908.00;;;;13086820;22;20738;-72
2022/09/23 15:58:34;;;;;;;8.65;4.45;;;;;18.60;100907.00;;;;13061731;22;20167;-72
2022/09/23 16:03:35;;;;;;;6.65;3.97;;;;;18.40;100914.00;;;;13012513;22;20233;-72
2022/09/23 16:08:37;;;;;;;15.43;4.82;;;;;18.30;100917.00;;;;13087841;22;20183;-73
2022/09/23 16:13:38;;;;;;;10.27;4.60;;;;;18.20;100912.00;;;;13087716;22;20503;-72
2022/09/23 16:18:42;;;;;;;6.13;4.40;;;;;18.10;100914.00;;;;13087695;22;20180;-72
2022/09/23 16:23:46;;;;;;;7.20;3.92;;;;;18.00;100913.00;;;;13041082;22;20175;-73
2022/09/23 16:28:49;;;;;;;5.68;3.88;;;;;17.80;100911.00;;;;13039103;22;20256;-72
2022/09/23 16:33:51;;;;;;;9.13;5.07;;;;;17.70;100909.00;;;;13062895;22;20220;-72
2022/09/23 16:38:54;;;;;;;9.98;5.55;;;;;17.50;100920.00;;;;13062457;22;20168;-72
2022/09/23 16:43:56;;;;;;;6.13;4.63;;;;;17.40;100919.00;;;;13014070;22;20645;-73
2022/09/23 16:48:58;;;;;;;8.45;5.10;;;;;17.20;100917.00;;;;13087230;22;20291;-72
2022/09/23 16:53:59;;;;;;;11.38;5.38;;;;;17.20;100921.00;;;;13012589;22;20163;-72
2022/09/23 16:59:00;;;;;;;6.85;4.72;;;;;17.10;100919.00;;;;13040819;22;20551;-72
2022/09/23 17:04:02;;;;;;;8.57;4.28;;;;;17.00;100923.00;;;;13061648;22;20650;-73
2022/09/23 17:09:03;;;;;;;7.60;4.93;;;;;16.70;100921.00;;;;13085872;22;20526;-72
2022/09/23 17:14:05;;;;;;;8.23;4.95;;;;;16.40;100933.00;;;;13035758;22;20472;-73
2022/09/23 17:19:09;;;;;;;9.57;5.38;;;;;16.10;100933.00;;;;13060509;22;20238;-72
2022/09/23 17:24:10;;;;;;;9.38;5.35;;;;;15.90;100928.00;;;;13037519;22;20171;-72
2022/09/23 17:29:13;;;;;;;7.15;5.45;;;;;15.70;100929.00;;;;13058229;22;20192;-72
2022/09/23 17:34:17;;;;;;;8.32;6.70;;;;;15.60;100932.00;;;;13086448;22;20234;-73
2022/09/23 17:39:18;;;;;;;9.07;5.97;;;;;15.50;100933.00;;;;13013851;22;20968;-72
2022/09/23 17:44:19;;;;;;;11.00;7.85;;;;;15.30;100930.00;;;;13115456;22;20164;-73
2022/09/23 17:49:22;;;;;;;9.85;7.75;;;;;15.20;100926.00;;;;13037075;22;20839;-72
2022/09/23 17:54:24;;;;;;;13.23;8.60;;;;;15.10;100928.00;;;;13036197;22;20168;-73
2022/09/23 17:59:25;;;;;;;13.43;9.38;;;;;15.00;100931.00;;;;13085556;22;20155;-73
2022/09/23 18:04:26;;;;;;;12.10;9.03;;;;;15.00;100927.00;;;;13039992;22;20176;-72
2022/09/23 18:09:28;;;;;;;16.20;10.90;;;;;14.90;100933.00;;;;13011136;22;20244;-72
2022/09/23 18:14:29;;;;;;;11.93;9.50;;;;;14.90;100936.00;;;;13038009;22;20172;-72
2022/09/23 18:19:30;;;;;;;16.00;11.90;;;;;14.80;100936.00;;;;13011058;22;20209;-72
2022/09/23 18:24:33;;;;;;;13.80;11.87;;;;;14.70;100934.00;;;;13035672;22;20163;-73
2022/09/23 18:29:35;;;;;;;16.10;12.27;;;;;14.60;100937.00;;;;13058633;22;20191;-72
2022/09/23 18:34:36;;;;;;;14.43;12.13;;;;;14.50;100944.00;;;;13086153;22;20179;-72
2022/09/23 18:39:37;;;;;;;21.60;13.73;;;;;14.50;100940.00;;;;13114252;22;20180;-72
2022/09/23 18:44:39;;;;;;;17.63;12.63;;;;;14.40;100938.00;;;;13063894;22;20195;-72
2022/09/23 18:55:00;;;;;;;17.27;13.37;;;;;14.40;100952.00;;;;13007742;22;20259;-72
2022/09/23 19:00:03;;;;;;;17.47;13.10;;;;;14.30;100952.00;;;;13083909;22;20155;-72
2022/09/23 19:05:04;;;;;;;22.57;14.50;;;;;14.30;100947.00;;;;13007945;22;20252;-73
2022/09/23 19:10:09;;;;;;;19.97;14.97;;;;;14.30;100945.00;;;;13039062;22;20199;-73
2022/09/23 19:15:11;;;;;;;17.43;14.87;;;;;14.20;100945.00;;;;13037216;22;20172;-73
2022/09/23 19:20:12;;;;;;;19.97;15.07;;;;;14.20;100932.00;;;;13086910;22;20159;-72
2022/09/23 19:25:16;;;;;;;19.60;15.63;;;;;14.20;100934.00;;;;13084606;22;20877;-73
2022/09/23 19:30:18;;;;;;;23.40;17.67;;;;;14.20;100924.00;;;;13061061;22;20289;-73
2022/09/23 19:35:19;;;;;;;22.67;17.30;;;;;14.20;100913.00;;;;13035120;22;20179;-73
2022/09/23 19:40:20;;;;;;;21.33;16.60;;;;;14.20;100906.00;;;;13009391;22;20236;-72
2022/09/23 19:45:21;;;;;;;20.13;17.97;;;;;14.10;100916.00;;;;13056701;22;20159;-73
2022/09/23 19:50:23;;;;;;;19.97;17.63;;;;;14.10;100914.00;;;;13084911;22;20190;-73
2022/09/23 19:55:24;;;;;;;23.03;17.50;;;;;14.00;100916.00;;;;13038113;22;20171;-73
2022/09/23 20:00:26;;;;;;;22.03;17.63;;;;;14.00;100904.00;;;;13084873;22;20251;-73
2022/09/23 20:05:28;;;;;;;25.30;18.40;;;;;14.00;100905.00;;;;13084428;22;20156;-73
2022/09/23 20:10:30;;;;;;;22.10;18.67;;;;;14.00;100898.00;;;;13033734;22;20290;-73
2022/09/23 20:15:31;;;;;;;24.63;19.63;;;;;13.90;100891.00;;;;12985327;22;20471;-73
2022/09/23 20:20:33;;;;;;;23.33;19.57;;;;;13.90;100902.00;;;;13058497;22;20164;-73
2022/09/23 20:30:57;;;;;;;27.83;21.13;;;;;13.80;100903.00;;;;13063198;22;20179;-73
2022/09/23 20:35:59;;;;;;;26.90;21.07;;;;;13.80;100905.00;;;;13035890;22;20690;-73
2022/09/23 20:41:01;;;;;;;28.47;21.17;;;;;13.80;100898.00;;;;13085590;22;20175;-73
2022/09/23 20:46:04;;;;;;;27.63;22.70;;;;;13.80;100899.00;;;;13037308;22;20198;-73
2022/09/23 20:51:05;;;;;;;29.90;22.63;;;;;13.70;100891.00;;;;13042434;22;20187;-73
2022/09/23 20:56:10;;;;;;;31.43;23.10;;;;;13.70;100878.00;;;;13012404;22;20866;-73
2022/09/23 21:01:11;;;;;;;29.27;23.23;;;;;13.60;100878.00;;;;13087301;22;20686;-73
2022/09/23 21:06:15;;;;;;;32.40;24.13;;;;;13.60;100882.00;;;;13086575;22;20167;-73
2022/09/23 21:11:16;;;;;;;27.60;22.13;;;;;13.60;100880.00;;;;13041732;22;20206;-73
2022/09/23 21:16:21;;;;;;;25.93;22.93;;;;;13.60;100881.00;;;;13039653;22;20476;-73
2022/09/23 21:21:22;;;;;;;30.77;25.70;;;;;13.60;100893.00;;;;13039643;22;20174;-75
2022/09/23 21:26:25;;;;;;;37.97;25.30;;;;;13.60;100892.00;;;;13113116;22;20619;-73
2022/09/23 21:31:32;;;;;;;39.17;26.63;;;;;13.60;100889.00;;;;13065141;22;20281;-73
2022/09/23 21:36:38;;;;;;;29.17;24.87;;;;;13.50;100890.00;;;;13010910;22;20510;-73
2022/09/23 21:41:40;;;;;;;32.07;25.57;;;;;13.40;100884.00;;;;13039646;22;20171;-73
2022/09/23 21:46:41;;;;;;;38.03;30.47;;;;;13.30;100885.00;;;;13087365;22;20190;-73
2022/09/23 21:51:42;;;;;;;36.13;30.73;;;;;13.20;100873.00;;;;13017503;22;20783;-73
2022/09/23 21:56:44;;;;;;;40.17;30.20;;;;;13.10;100875.00;;;;13037676;22;20179;-73
2022/09/23 22:01:45;;;;;;;37.73;30.43;;;;;13.10;100876.00;;;;13036991;22;20176;-73
2022/09/23 22:06:52;;;;;;;42.93;30.10;;;;;13.00;100870.00;;;;13059404;22;20155;-73
2022/09/23 22:12:11;;;;;;;39.07;29.17;;;;;13.00;100866.00;;;;13085951;22;20202;-73
2022/09/23 22:17:15;;;;;;;39.37;31.53;;;;;13.00;100865.00;;;;13113031;22;20614;-73
2022/09/23 22:22:17;;;;;;;35.03;30.20;;;;;13.00;100866.00;;;;13083976;22;20174;-73
2022/09/23 22:27:19;;;;;;;39.20;31.10;;;;;13.00;100865.00;;;;13087807;22;20171;-73
2022/09/23 22:37:40;;;;;;;41.17;31.07;;;;;13.00;100861.00;;;;13060924;22;20169;-73
2022/09/23 22:42:42;;;;;;;35.47;29.93;;;;;13.00;100861.00;;;;13040166;22;20171;-73
2022/09/23 22:47:44;;;;;;;38.97;30.93;;;;;13.10;100856.00;;;;13087282;22;20301;-73
2022/09/23 22:52:46;;;;;;;43.40;33.07;;;;;13.10;100858.00;;;;13087356;22;20236;-73
2022/09/23 22:57:49;;;;;;;41.17;31.47;;;;;13.10;100854.00;;;;13012842;22;20203;-74
2022/09/23 23:02:50;;;;;;;42.17;33.87;;;;;13.10;100855.00;;;;13114755;22;20167;-73
2022/09/23 23:07:52;;;;;;;42.70;31.70;;;;;13.10;100849.00;;;;13086379;22;20285;-74
2022/09/23 23:12:53;;;;;;;33.70;26.50;;;;;13.10;100849.00;;;;13014807;22;20205;-74
2022/09/23 23:17:56;;;;;;;36.43;24.07;;;;;13.10;100847.00;;;;13039802;22;20231;-73
2022/09/23 23:23:00;;;;;;;30.50;23.47;;;;;13.10;100835.00;;;;13036610;22;20231;-73
2022/09/23 23:28:04;;;;;;;37.43;26.27;;;;;13.10;100833.00;;;;13039068;22;20175;-73
2022/09/23 23:33:05;;;;;;;40.13;27.77;;;;;13.10;100832.00;;;;13039889;22;20175;-74
2022/09/23 23:38:07;;;;;;;35.00;25.93;;;;;13.10;100831.00;;;;13114568;22;20156;-74
2022/09/23 23:43:09;;;;;;;37.60;25.60;;;;;13.10;100824.00;;;;13039732;22;20172;-74
2022/09/23 23:48:11;;;;;;;32.17;23.10;;;;;13.10;100822.00;;;;13059297;22;20179;-74
2022/09/23 23:53:12;;;;;;;34.70;25.77;;;;;13.10;100811.00;;;;13061800;22;20257;-74
2022/09/23 23:58:16;;;;;;;41.47;30.73;;;;;13.10;100805.00;;;;13039751;22;20541;-74
